sensor_id;sensor_type;location;lat;lon;timestamp;P1;durP1;ratioP1;P2;durP2;ratioP2
8562;SDS011;16392;52.508;13.468;2023-09-19T00:00:25;544.67;;;470.80;;
8562;SDS011;16392;52.508;13.468;2023-09-19T00:02:52;535.27;;;442.53;;
8562;SDS011;16392;52.508;13.468;2023-09-19T00:05:21;553.33;;;483.23;;
8562;SDS011;16392;52.508;13.468;2023-09-19T00:07:49;542.00;;;458.50;;
8562;SDS011;16392;52.508;13.468;2023-09-19T00:10:18;539.50;;;454.17;;
8562;SDS011;16392;52.508;13.468;2023-09-19T00:12:46;539.47;;;445.83;;
8562;SDS011;16392;52.508;13.468;2023-09-19T00:15:13;543.17;;;461.07;;
8562;SDS011;16392;52.508;13.468;2023-09-19T00:17:42;537.50;;;445.97;;
8562;SDS011;16392;52.508;13.468;2023-09-19T00:20:09;537.53;;;447.60;;
8562;SDS011;16392;52.508;13.468;2023-09-19T00:22:40;540.53;;;462.37;;
8562;SDS011;16392;52.508;13.468;2023-09-19T00:25:07;540.17;;;451.93;;
8562;SDS011;16392;52.508;13.468;2023-09-19T00:27:36;541.40;;;459.63;;
8562;SDS011;16392;52.508;13.468;2023-09-19T00:30:06;545.13;;;440.95;;
8562;SDS011;16392;52.508;13.468;2023-09-19T00:32:39;537.53;;;452.27;;
8562;SDS011;16392;52.508;13.468;2023-09-19T00:35:06;537.45;;;451.13;;
8562;SDS011;16392;52.508;13.468;2023-09-19T00:37:34;536.83;;;443.73;;
8562;SDS011;16392;52.508;13.468;2023-09-19T00:40:02;541.25;;;459.50;;
8562;SDS011;16392;52.508;13.468;2023-09-19T00:42:30;532.92;;;438.60;;
8562;SDS011;16392;52.508;13.468;2023-09-19T00:44:58;545.10;;;465.67;;
8562;SDS011;16392;52.508;13.468;2023-09-19T00:47:28;541.03;;;459.97;;
8562;SDS011;16392;52.508;13.468;2023-09-19T00:49:55;539.00;;;442.10;;
8562;SDS011;16392;52.508;13.468;2023-09-19T00:52:22;536.17;;;440.90;;
8562;SDS011;16392;52.508;13.468;2023-09-19T00:54:49;539.90;;;453.07;;
8562;SDS011;16392;52.508;13.468;2023-09-19T00:57:18;537.40;;;435.07;;
8562;SDS011;16392;52.508;13.468;2023-09-19T00:59:47;536.40;;;435.07;;
8562;SDS011;16392;52.508;13.468;2023-09-19T01:02:16;534.37;;;436.13;;
8562;SDS011;16392;52.508;13.468;2023-09-19T01:04:43;542.50;;;457.17;;
8562;SDS011;16392;52.508;13.468;2023-09-19T01:07:11;536.30;;;423.77;;
8562;SDS011;16392;52.508;13.468;2023-09-19T01:09:38;538.57;;;451.23;;
8562;SDS011;16392;52.508;13.468;2023-09-19T01:12:05;532.90;;;424.17;;
8562;SDS011;16392;52.508;13.468;2023-09-19T01:14:37;536.30;;;446.20;;
8562;SDS011;16392;52.508;13.468;2023-09-19T01:17:09;531.77;;;426.87;;
8562;SDS011;16392;52.508;13.468;2023-09-19T01:20:10;531.30;;;430.47;;
8562;SDS011;16392;52.508;13.468;2023-09-19T01:22:46;534.80;;;444.03;;
8562;SDS011;16392;52.508;13.468;2023-09-19T01:25:20;531.87;;;428.80;;
8562;SDS011;16392;52.508;13.468;2023-09-19T01:28:29;536.87;;;443.27;;
8562;SDS011;16392;52.508;13.468;2023-09-19T01:31:03;533.53;;;433.17;;
8562;SDS011;16392;52.508;13.468;2023-09-19T01:36:20;530.67;;;426.83;;
8562;SDS011;16392;52.508;13.468;2023-09-19T01:38:48;532.90;;;433.53;;
8562;SDS011;16392;52.508;13.468;2023-09-19T01:41:15;534.30;;;430.03;;
8562;SDS011;16392;52.508;13.468;2023-09-19T01:43:47;532.35;;;430.65;;
8562;SDS011;16392;52.508;13.468;2023-09-19T01:46:18;532.43;;;428.37;;
8562;SDS011;16392;52.508;13.468;2023-09-19T01:48:53;529.93;;;421.30;;
8562;SDS011;16392;52.508;13.468;2023-09-19T01:51:26;529.93;;;417.03;;
8562;SDS011;16392;52.508;13.468;2023-09-19T01:54:00;533.80;;;431.37;;
8562;SDS011;16392;52.508;13.468;2023-09-19T01:56:32;530.50;;;428.53;;
8562;SDS011;16392;52.508;13.468;2023-09-19T01:59:04;532.77;;;432.80;;
8562;SDS011;16392;52.508;13.468;2023-09-19T02:01:35;534.70;;;436.50;;
8562;SDS011;16392;52.508;13.468;2023-09-19T02:04:03;534.00;;;441.60;;
8562;SDS011;16392;52.508;13.468;2023-09-19T02:06:31;534.47;;;426.83;;
8562;SDS011;16392;52.508;13.468;2023-09-19T02:08:59;531.60;;;421.83;;
8562;SDS011;16392;52.508;13.468;2023-09-19T02:11:26;529.53;;;420.57;;
8562;SDS011;16392;52.508;13.468;2023-09-19T02:13:52;528.50;;;420.20;;
8562;SDS011;16392;52.508;13.468;2023-09-19T02:16:19;534.13;;;419.90;;
8562;SDS011;16392;52.508;13.468;2023-09-19T02:18:48;531.23;;;423.10;;
8562;SDS011;16392;52.508;13.468;2023-09-19T02:21:15;534.73;;;429.90;;
8562;SDS011;16392;52.508;13.468;2023-09-19T02:23:42;526.57;;;414.20;;
8562;SDS011;16392;52.508;13.468;2023-09-19T02:26:09;530.33;;;431.07;;
8562;SDS011;16392;52.508;13.468;2023-09-19T02:28:36;532.37;;;429.27;;
8562;SDS011;16392;52.508;13.468;2023-09-19T02:31:03;528.90;;;414.50;;
8562;SDS011;16392;52.508;13.468;2023-09-19T02:33:30;526.40;;;412.43;;
8562;SDS011;16392;52.508;13.468;2023-09-19T02:35:59;529.43;;;421.23;;
8562;SDS011;16392;52.508;13.468;2023-09-19T02:38:25;535.67;;;445.77;;
8562;SDS011;16392;52.508;13.468;2023-09-19T02:40:52;532.33;;;435.93;;
8562;SDS011;16392;52.508;13.468;2023-09-19T02:43:20;536.03;;;438.23;;
8562;SDS011;16392;52.508;13.468;2023-09-19T02:45:47;535.60;;;435.43;;
8562;SDS011;16392;52.508;13.468;2023-09-19T02:48:15;529.53;;;419.47;;
8562;SDS011;16392;52.508;13.468;2023-09-19T02:50:41;533.20;;;438.20;;
8562;SDS011;16392;52.508;13.468;2023-09-19T02:53:10;534.10;;;441.67;;
8562;SDS011;16392;52.508;13.468;2023-09-19T02:55:37;532.90;;;436.63;;
8562;SDS011;16392;52.508;13.468;2023-09-19T02:58:05;529.57;;;422.00;;
8562;SDS011;16392;52.508;13.468;2023-09-19T03:00:33;530.17;;;432.90;;
8562;SDS011;16392;52.508;13.468;2023-09-19T03:03:00;537.70;;;451.97;;
8562;SDS011;16392;52.508;13.468;2023-09-19T03:05:28;530.93;;;433.30;;
8562;SDS011;16392;52.508;13.468;2023-09-19T03:07:55;531.93;;;434.37;;
8562;SDS011;16392;52.508;13.468;2023-09-19T03:10:27;533.50;;;425.80;;
8562;SDS011;16392;52.508;13.468;2023-09-19T03:12:54;528.47;;;418.83;;
8562;SDS011;16392;52.508;13.468;2023-09-19T03:15:21;529.07;;;424.10;;
8562;SDS011;16392;52.508;13.468;2023-09-19T03:17:48;530.90;;;420.13;;
8562;SDS011;16392;52.508;13.468;2023-09-19T03:20:17;528.13;;;415.13;;
8562;SDS011;16392;52.508;13.468;2023-09-19T03:22:44;524.97;;;408.07;;
8562;SDS011;16392;52.508;13.468;2023-09-19T03:25:10;527.57;;;417.57;;
8562;SDS011;16392;52.508;13.468;2023-09-19T03:27:39;526.97;;;411.93;;
8562;SDS011;16392;52.508;13.468;2023-09-19T03:30:06;532.20;;;422.50;;
8562;SDS011;16392;52.508;13.468;2023-09-19T03:32:34;529.60;;;420.97;;
8562;SDS011;16392;52.508;13.468;2023-09-19T03:35:01;532.70;;;427.17;;
8562;SDS011;16392;52.508;13.468;2023-09-19T03:37:28;530.77;;;421.93;;
8562;SDS011;16392;52.508;13.468;2023-09-19T03:39:54;538.43;;;442.00;;
8562;SDS011;16392;52.508;13.468;2023-09-19T03:42:21;534.17;;;431.38;;
8562;SDS011;16392;52.508;13.468;2023-09-19T03:44:51;528.63;;;410.83;;
8562;SDS011;16392;52.508;13.468;2023-09-19T03:47:20;531.23;;;416.97;;
8562;SDS011;16392;52.508;13.468;2023-09-19T03:49:46;532.10;;;421.53;;
8562;SDS011;16392;52.508;13.468;2023-09-19T03:52:13;534.20;;;433.23;;
8562;SDS011;16392;52.508;13.468;2023-09-19T03:54:40;537.23;;;432.20;;
8562;SDS011;16392;52.508;13.468;2023-09-19T03:57:08;528.80;;;414.67;;
8562;SDS011;16392;52.508;13.468;2023-09-19T03:59:36;530.53;;;417.00;;
8562;SDS011;16392;52.508;13.468;2023-09-19T04:02:04;534.10;;;423.53;;
8562;SDS011;16392;52.508;13.468;2023-09-19T04:04:37;531.90;;;424.83;;
8562;SDS011;16392;52.508;13.468;2023-09-19T04:07:03;537.33;;;430.40;;
8562;SDS011;16392;52.508;13.468;2023-09-19T04:09:30;539.93;;;451.40;;
8562;SDS011;16392;52.508;13.468;2023-09-19T04:11:56;539.83;;;442.17;;
8562;SDS011;16392;52.508;13.468;2023-09-19T04:14:23;536.10;;;431.80;;
8562;SDS011;16392;52.508;13.468;2023-09-19T04:16:50;534.77;;;424.30;;
8562;SDS011;16392;52.508;13.468;2023-09-19T04:19:18;537.40;;;429.00;;
8562;SDS011;16392;52.508;13.468;2023-09-19T04:21:46;544.77;;;458.07;;
8562;SDS011;16392;52.508;13.468;2023-09-19T04:24:12;538.43;;;437.50;;
8562;SDS011;16392;52.508;13.468;2023-09-19T04:26:39;538.47;;;435.43;;
8562;SDS011;16392;52.508;13.468;2023-09-19T04:29:07;537.10;;;424.13;;
8562;SDS011;16392;52.508;13.468;2023-09-19T04:31:36;539.47;;;433.77;;
8562;SDS011;16392;52.508;13.468;2023-09-19T04:34:05;545.13;;;440.07;;
8562;SDS011;16392;52.508;13.468;2023-09-19T04:36:35;541.90;;;441.83;;
8562;SDS011;16392;52.508;13.468;2023-09-19T04:39:02;543.83;;;444.33;;
8562;SDS011;16392;52.508;13.468;2023-09-19T04:41:30;538.50;;;437.60;;
8562;SDS011;16392;52.508;13.468;2023-09-19T04:43:57;540.00;;;429.23;;
8562;SDS011;16392;52.508;13.468;2023-09-19T04:46:24;539.57;;;435.50;;
8562;SDS011;16392;52.508;13.468;2023-09-19T04:48:50;548.47;;;463.87;;
8562;SDS011;16392;52.508;13.468;2023-09-19T04:51:17;550.27;;;468.60;;
8562;SDS011;16392;52.508;13.468;2023-09-19T04:53:45;540.77;;;432.50;;
8562;SDS011;16392;52.508;13.468;2023-09-19T04:56:12;540.53;;;444.00;;
8562;SDS011;16392;52.508;13.468;2023-09-19T04:58:40;538.07;;;426.03;;
8562;SDS011;16392;52.508;13.468;2023-09-19T05:01:06;542.40;;;451.10;;
8562;SDS011;16392;52.508;13.468;2023-09-19T05:03:36;544.07;;;453.43;;
8562;SDS011;16392;52.508;13.468;2023-09-19T05:06:03;537.53;;;430.43;;
8562;SDS011;16392;52.508;13.468;2023-09-19T05:08:30;539.20;;;436.53;;
8562;SDS011;16392;52.508;13.468;2023-09-19T05:10:58;539.33;;;436.33;;
8562;SDS011;16392;52.508;13.468;2023-09-19T05:13:28;543.80;;;440.73;;
8562;SDS011;16392;52.508;13.468;2023-09-19T05:15:59;537.33;;;430.10;;
8562;SDS011;16392;52.508;13.468;2023-09-19T05:18:26;538.43;;;441.53;;
8562;SDS011;16392;52.508;13.468;2023-09-19T05:20:53;534.03;;;423.17;;
8562;SDS011;16392;52.508;13.468;2023-09-19T05:23:21;536.37;;;424.23;;
8562;SDS011;16392;52.508;13.468;2023-09-19T05:25:47;541.83;;;436.87;;
8562;SDS011;16392;52.508;13.468;2023-09-19T05:28:15;536.63;;;432.80;;
8562;SDS011;16392;52.508;13.468;2023-09-19T05:30:42;534.57;;;421.47;;
8562;SDS011;16392;52.508;13.468;2023-09-19T05:33:09;538.67;;;439.30;;
8562;SDS011;16392;52.508;13.468;2023-09-19T05:35:36;538.10;;;435.33;;
8562;SDS011;16392;52.508;13.468;2023-09-19T05:38:04;535.30;;;424.07;;
8562;SDS011;16392;52.508;13.468;2023-09-19T05:40:34;532.17;;;416.53;;
8562;SDS011;16392;52.508;13.468;2023-09-19T05:43:00;534.33;;;423.70;;
8562;SDS011;16392;52.508;13.468;2023-09-19T05:45:30;534.17;;;425.80;;
8562;SDS011;16392;52.508;13.468;2023-09-19T05:48:05;531.30;;;413.83;;
8562;SDS011;16392;52.508;13.468;2023-09-19T05:50:33;531.00;;;413.73;;
8562;SDS011;16392;52.508;13.468;2023-09-19T05:53:01;527.73;;;409.83;;
8562;SDS011;16392;52.508;13.468;2023-09-19T05:55:29;534.50;;;412.37;;
8562;SDS011;16392;52.508;13.468;2023-09-19T05:57:55;532.20;;;421.37;;
8562;SDS011;16392;52.508;13.468;2023-09-19T06:00:23;534.60;;;422.83;;
8562;SDS011;16392;52.508;13.468;2023-09-19T06:02:54;531.83;;;416.33;;
8562;SDS011;16392;52.508;13.468;2023-09-19T06:05:22;536.97;;;415.52;;
8562;SDS011;16392;52.508;13.468;2023-09-19T06:07:49;530.93;;;416.87;;
8562;SDS011;16392;52.508;13.468;2023-09-19T06:10:17;527.63;;;401.87;;
8562;SDS011;16392;52.508;13.468;2023-09-19T06:12:46;528.08;;;412.08;;
8562;SDS011;16392;52.508;13.468;2023-09-19T06:15:13;535.13;;;432.25;;
8562;SDS011;16392;52.508;13.468;2023-09-19T06:17:42;532.88;;;424.33;;
8562;SDS011;16392;52.508;13.468;2023-09-19T06:20:11;526.50;;;411.67;;
8562;SDS011;16392;52.508;13.468;2023-09-19T06:22:40;526.50;;;411.30;;
8562;SDS011;16392;52.508;13.468;2023-09-19T06:25:08;522.35;;;394.15;;
8562;SDS011;16392;52.508;13.468;2023-09-19T06:27:36;534.40;;;429.17;;
8562;SDS011;16392;52.508;13.468;2023-09-19T06:30:05;529.53;;;421.10;;
8562;SDS011;16392;52.508;13.468;2023-09-19T06:32:33;524.67;;;406.05;;
8562;SDS011;16392;52.508;13.468;2023-09-19T06:34:59;527.55;;;416.05;;
8562;SDS011;16392;52.508;13.468;2023-09-19T06:37:28;529.47;;;417.85;;
8562;SDS011;16392;52.508;13.468;2023-09-19T06:39:55;523.88;;;404.73;;
8562;SDS011;16392;52.508;13.468;2023-09-19T06:42:22;537.50;;;456.90;;
8562;SDS011;16392;52.508;13.468;2023-09-19T06:44:49;539.25;;;466.15;;
8562;SDS011;16392;52.508;13.468;2023-09-19T06:47:17;532.47;;;447.80;;
8562;SDS011;16392;52.508;13.468;2023-09-19T06:49:47;532.90;;;436.35;;
8562;SDS011;16392;52.508;13.468;2023-09-19T06:52:15;527.25;;;438.42;;
8562;SDS011;16392;52.508;13.468;2023-09-19T06:54:43;534.40;;;458.20;;
8562;SDS011;16392;52.508;13.468;2023-09-19T06:57:10;544.25;;;483.40;;
8562;SDS011;16392;52.508;13.468;2023-09-19T06:59:39;536.88;;;473.42;;
8562;SDS011;16392;52.508;13.468;2023-09-19T07:02:06;534.47;;;466.30;;
8562;SDS011;16392;52.508;13.468;2023-09-19T07:04:33;541.22;;;481.30;;
8562;SDS011;16392;52.508;13.468;2023-09-19T07:07:00;548.22;;;488.10;;
8562;SDS011;16392;52.508;13.468;2023-09-19T07:09:27;573.00;;;512.30;;
8562;SDS011;16392;52.508;13.468;2023-09-19T07:11:55;627.10;;;564.92;;
8562;SDS011;16392;52.508;13.468;2023-09-19T07:14:22;659.83;;;596.97;;
8562;SDS011;16392;52.508;13.468;2023-09-19T07:16:48;676.03;;;612.72;;
8562;SDS011;16392;52.508;13.468;2023-09-19T07:19:17;692.40;;;628.97;;
8562;SDS011;16392;52.508;13.468;2023-09-19T07:21:43;693.22;;;629.55;;
8562;SDS011;16392;52.508;13.468;2023-09-19T07:24:12;693.05;;;629.60;;
8562;SDS011;16392;52.508;13.468;2023-09-19T07:26:39;680.08;;;616.45;;
8562;SDS011;16392;52.508;13.468;2023-09-19T07:29:07;649.63;;;587.88;;
8562;SDS011;16392;52.508;13.468;2023-09-19T07:31:34;614.03;;;553.22;;
8562;SDS011;16392;52.508;13.468;2023-09-19T07:34:00;683.08;;;620.33;;
8562;SDS011;16392;52.508;13.468;2023-09-19T07:36:29;663.85;;;601.67;;
8562;SDS011;16392;52.508;13.468;2023-09-19T07:38:55;658.40;;;596.05;;
8562;SDS011;16392;52.508;13.468;2023-09-19T07:41:23;652.67;;;590.38;;
8562;SDS011;16392;52.508;13.468;2023-09-19T07:43:50;624.92;;;563.40;;
8562;SDS011;16392;52.508;13.468;2023-09-19T07:46:18;624.47;;;562.95;;
8562;SDS011;16392;52.508;13.468;2023-09-19T07:48:49;590.70;;;530.20;;
8562;SDS011;16392;52.508;13.468;2023-09-19T07:51:16;604.53;;;543.60;;
8562;SDS011;16392;52.508;13.468;2023-09-19T07:53:42;589.13;;;528.45;;
8562;SDS011;16392;52.508;13.468;2023-09-19T07:56:09;564.60;;;504.42;;
8562;SDS011;16392;52.508;13.468;2023-09-19T07:58:39;573.33;;;512.45;;
8562;SDS011;16392;52.508;13.468;2023-09-19T08:01:09;542.50;;;483.20;;
8562;SDS011;16392;52.508;13.468;2023-09-19T08:03:39;571.15;;;510.98;;
8562;SDS011;16392;52.508;13.468;2023-09-19T08:06:07;563.47;;;503.55;;
8562;SDS011;16392;52.508;13.468;2023-09-19T08:08:34;568.90;;;509.00;;
8562;SDS011;16392;52.508;13.468;2023-09-19T08:11:02;554.95;;;494.98;;
8562;SDS011;16392;52.508;13.468;2023-09-19T08:13:35;571.50;;;511.33;;
8562;SDS011;16392;52.508;13.468;2023-09-19T08:16:02;545.13;;;485.65;;
8562;SDS011;16392;52.508;13.468;2023-09-19T08:18:29;547.72;;;488.05;;
8562;SDS011;16392;52.508;13.468;2023-09-19T08:20:57;532.60;;;471.13;;
8562;SDS011;16392;52.508;13.468;2023-09-19T08:23:25;547.53;;;488.13;;
8562;SDS011;16392;52.508;13.468;2023-09-19T08:25:55;564.05;;;504.30;;
8562;SDS011;16392;52.508;13.468;2023-09-19T08:28:23;581.13;;;520.17;;
8562;SDS011;16392;52.508;13.468;2023-09-19T08:30:49;570.88;;;510.30;;
8562;SDS011;16392;52.508;13.468;2023-09-19T08:33:16;546.75;;;486.92;;
8562;SDS011;16392;52.508;13.468;2023-09-19T08:35:43;534.65;;;474.25;;
8562;SDS011;16392;52.508;13.468;2023-09-19T08:38:13;530.15;;;462.10;;
8562;SDS011;16392;52.508;13.468;2023-09-19T08:40:40;532.50;;;454.17;;
8562;SDS011;16392;52.508;13.468;2023-09-19T08:43:08;527.22;;;444.65;;
8562;SDS011;16392;52.508;13.468;2023-09-19T08:45:35;522.05;;;425.42;;
8562;SDS011;16392;52.508;13.468;2023-09-19T08:48:11;530.15;;;461.05;;
8562;SDS011;16392;52.508;13.468;2023-09-19T08:50:48;567.42;;;507.48;;
8562;SDS011;16392;52.508;13.468;2023-09-19T08:53:21;542.28;;;482.58;;
8562;SDS011;16392;52.508;13.468;2023-09-19T08:55:54;582.75;;;522.10;;
8562;SDS011;16392;52.508;13.468;2023-09-19T08:58:22;553.10;;;493.60;;
8562;SDS011;16392;52.508;13.468;2023-09-19T09:00:54;557.15;;;497.50;;
8562;SDS011;16392;52.508;13.468;2023-09-19T09:03:22;565.38;;;505.60;;
8562;SDS011;16392;52.508;13.468;2023-09-19T09:05:49;577.03;;;516.83;;
8562;SDS011;16392;52.508;13.468;2023-09-19T09:08:17;568.47;;;508.45;;
8562;SDS011;16392;52.508;13.468;2023-09-19T09:10:48;576.88;;;516.63;;
8562;SDS011;16392;52.508;13.468;2023-09-19T09:13:15;580.22;;;520.08;;
8562;SDS011;16392;52.508;13.468;2023-09-19T09:15:43;631.45;;;569.60;;
8562;SDS011;16392;52.508;13.468;2023-09-19T09:18:10;653.30;;;590.97;;
8562;SDS011;16392;52.508;13.468;2023-09-19T09:20:38;637.63;;;575.88;;
8562;SDS011;16392;52.508;13.468;2023-09-19T09:23:04;650.83;;;588.85;;
8562;SDS011;16392;52.508;13.468;2023-09-19T09:25:49;651.78;;;589.50;;
8562;SDS011;16392;52.508;13.468;2023-09-19T09:28:20;686.70;;;623.55;;
8562;SDS011;16392;52.508;13.468;2023-09-19T09:30:48;693.33;;;629.22;;
8562;SDS011;16392;52.508;13.468;2023-09-19T09:33:15;713.72;;;649.92;;
8562;SDS011;16392;52.508;13.468;2023-09-19T09:35:50;716.15;;;651.95;;
8562;SDS011;16392;52.508;13.468;2023-09-19T09:38:18;702.15;;;638.90;;
8562;SDS011;16392;52.508;13.468;2023-09-19T09:40:46;720.15;;;656.53;;
8562;SDS011;16392;52.508;13.468;2023-09-19T09:43:25;748.63;;;683.83;;
8562;SDS011;16392;52.508;13.468;2023-09-19T09:46:06;747.90;;;683.22;;
8562;SDS011;16392;52.508;13.468;2023-09-19T09:48:57;759.70;;;694.63;;
8562;SDS011;16392;52.508;13.468;2023-09-19T09:51:44;734.20;;;670.30;;
8562;SDS011;16392;52.508;13.468;2023-09-19T09:54:22;736.15;;;672.35;;
8562;SDS011;16392;52.508;13.468;2023-09-19T09:56:54;727.00;;;663.13;;
8562;SDS011;16392;52.508;13.468;2023-09-19T09:59:46;726.80;;;663.10;;
8562;SDS011;16392;52.508;13.468;2023-09-19T10:02:16;732.75;;;668.80;;
8562;SDS011;16392;52.508;13.468;2023-09-19T10:04:53;719.97;;;656.42;;
8562;SDS011;16392;52.508;13.468;2023-09-19T10:07:32;717.80;;;654.50;;
8562;SDS011;16392;52.508;13.468;2023-09-19T10:10:01;725.38;;;661.63;;
8562;SDS011;16392;52.508;13.468;2023-09-19T10:12:44;727.28;;;663.95;;
8562;SDS011;16392;52.508;13.468;2023-09-19T10:15:14;719.33;;;656.03;;
8562;SDS011;16392;52.508;13.468;2023-09-19T10:17:43;736.78;;;672.95;;
8562;SDS011;16392;52.508;13.468;2023-09-19T10:20:14;728.70;;;665.15;;
8562;SDS011;16392;52.508;13.468;2023-09-19T10:23:03;724.35;;;660.83;;
8562;SDS011;16392;52.508;13.468;2023-09-19T10:25:36;730.67;;;667.05;;
8562;SDS011;16392;52.508;13.468;2023-09-19T10:28:06;731.08;;;667.45;;
8562;SDS011;16392;52.508;13.468;2023-09-19T10:30:36;717.10;;;653.92;;
8562;SDS011;16392;52.508;13.468;2023-09-19T10:33:07;716.80;;;653.70;;
8562;SDS011;16392;52.508;13.468;2023-09-19T10:35:34;724.72;;;661.58;;
8562;SDS011;16392;52.508;13.468;2023-09-19T10:38:05;698.92;;;636.35;;
8562;SDS011;16392;52.508;13.468;2023-09-19T10:40:34;734.03;;;670.45;;
8562;SDS011;16392;52.508;13.468;2023-09-19T10:43:02;688.22;;;625.90;;
8562;SDS011;16392;52.508;13.468;2023-09-19T10:45:33;678.72;;;616.72;;
8562;SDS011;16392;52.508;13.468;2023-09-19T10:48:01;664.65;;;602.90;;
8562;SDS011;16392;52.508;13.468;2023-09-19T10:50:30;638.15;;;576.80;;
8562;SDS011;16392;52.508;13.468;2023-09-19T10:52:59;624.65;;;563.70;;
8562;SDS011;16392;52.508;13.468;2023-09-19T10:55:30;632.58;;;571.17;;
8562;SDS011;16392;52.508;13.468;2023-09-19T10:58:00;618.72;;;557.75;;
8562;SDS011;16392;52.508;13.468;2023-09-19T11:00:30;633.58;;;572.53;;
8562;SDS011;16392;52.508;13.468;2023-09-19T11:03:16;613.95;;;553.20;;
8562;SDS011;16392;52.508;13.468;2023-09-19T11:05:59;599.78;;;538.97;;
8562;SDS011;16392;52.508;13.468;2023-09-19T11:08:30;615.15;;;554.05;;
8562;SDS011;16392;52.508;13.468;2023-09-19T11:10:58;615.65;;;554.60;;
8562;SDS011;16392;52.508;13.468;2023-09-19T11:13:28;627.85;;;566.65;;
8562;SDS011;16392;52.508;13.468;2023-09-19T11:16:04;608.95;;;548.15;;
8562;SDS011;16392;52.508;13.468;2023-09-19T11:18:50;612.70;;;551.97;;
8562;SDS011;16392;52.508;13.468;2023-09-19T11:24:29;605.35;;;545.08;;
8562;SDS011;16392;52.508;13.468;2023-09-19T11:27:14;605.15;;;544.67;;
8562;SDS011;16392;52.508;13.468;2023-09-19T11:29:43;631.85;;;570.58;;
8562;SDS011;16392;52.508;13.468;2023-09-19T11:32:11;631.05;;;569.88;;
8562;SDS011;16392;52.508;13.468;2023-09-19T11:34:44;618.33;;;557.75;;
8562;SDS011;16392;52.508;13.468;2023-09-19T11:40:33;601.58;;;541.55;;
8562;SDS011;16392;52.508;13.468;2023-09-19T11:46:04;629.53;;;568.45;;
8562;SDS011;16392;52.508;13.468;2023-09-19T11:48:37;624.50;;;563.50;;
8562;SDS011;16392;52.508;13.468;2023-09-19T11:51:14;618.58;;;557.65;;
8562;SDS011;16392;52.508;13.468;2023-09-19T11:53:44;620.03;;;559.30;;
8562;SDS011;16392;52.508;13.468;2023-09-19T11:56:14;644.60;;;583.08;;
8562;SDS011;16392;52.508;13.468;2023-09-19T11:58:42;631.00;;;570.08;;
8562;SDS011;16392;52.508;13.468;2023-09-19T12:01:11;606.88;;;546.47;;
8562;SDS011;16392;52.508;13.468;2023-09-19T12:03:47;634.90;;;573.75;;
8562;SDS011;16392;52.508;13.468;2023-09-19T12:06:19;625.00;;;564.00;;
8562;SDS011;16392;52.508;13.468;2023-09-19T12:08:47;616.85;;;555.88;;
8562;SDS011;16392;52.508;13.468;2023-09-19T12:11:15;637.55;;;575.95;;
8562;SDS011;16392;52.508;13.468;2023-09-19T12:13:43;610.08;;;549.33;;
8562;SDS011;16392;52.508;13.468;2023-09-19T12:16:15;606.03;;;545.25;;
8562;SDS011;16392;52.508;13.468;2023-09-19T12:18:43;599.00;;;538.72;;
8562;SDS011;16392;52.508;13.468;2023-09-19T12:21:22;622.13;;;561.08;;
8562;SDS011;16392;52.508;13.468;2023-09-19T12:23:56;631.67;;;570.63;;
8562;SDS011;16392;52.508;13.468;2023-09-19T12:26:25;622.38;;;561.28;;
8562;SDS011;16392;52.508;13.468;2023-09-19T12:28:54;639.92;;;578.63;;
8562;SDS011;16392;52.508;13.468;2023-09-19T12:31:21;639.90;;;578.65;;
8562;SDS011;16392;52.508;13.468;2023-09-19T12:33:52;621.13;;;560.28;;
8562;SDS011;16392;52.508;13.468;2023-09-19T12:36:20;615.95;;;555.00;;
8562;SDS011;16392;52.508;13.468;2023-09-19T12:38:51;620.20;;;559.53;;
8562;SDS011;16392;52.508;13.468;2023-09-19T12:41:20;599.25;;;539.25;;
8562;SDS011;16392;52.508;13.468;2023-09-19T12:43:47;615.40;;;554.90;;
8562;SDS011;16392;52.508;13.468;2023-09-19T12:46:14;615.85;;;554.85;;
8562;SDS011;16392;52.508;13.468;2023-09-19T12:48:44;606.08;;;545.67;;
8562;SDS011;16392;52.508;13.468;2023-09-19T12:51:13;628.22;;;567.33;;
8562;SDS011;16392;52.508;13.468;2023-09-19T12:53:42;619.38;;;558.78;;
8562;SDS011;16392;52.508;13.468;2023-09-19T12:56:12;647.72;;;586.17;;
8562;SDS011;16392;52.508;13.468;2023-09-19T12:58:50;629.05;;;568.08;;
8562;SDS011;16392;52.508;13.468;2023-09-19T13:01:19;657.20;;;595.40;;
8562;SDS011;16392;52.508;13.468;2023-09-19T13:06:44;643.70;;;582.38;;
8562;SDS011;16392;52.508;13.468;2023-09-19T13:09:13;638.53;;;577.33;;
8562;SDS011;16392;52.508;13.468;2023-09-19T13:11:42;653.45;;;591.97;;
8562;SDS011;16392;52.508;13.468;2023-09-19T13:14:15;655.67;;;594.17;;
8562;SDS011;16392;52.508;13.468;2023-09-19T13:16:53;634.22;;;573.38;;
8562;SDS011;16392;52.508;13.468;2023-09-19T13:19:38;630.45;;;569.58;;
8562;SDS011;16392;52.508;13.468;2023-09-19T13:25:04;599.55;;;539.22;;
8562;SDS011;16392;52.508;13.468;2023-09-19T13:27:33;594.58;;;534.05;;
8562;SDS011;16392;52.508;13.468;2023-09-19T13:29:59;581.88;;;521.72;;
8562;SDS011;16392;52.508;13.468;2023-09-19T13:32:26;582.00;;;521.85;;
8562;SDS011;16392;52.508;13.468;2023-09-19T13:34:53;589.10;;;528.67;;
8562;SDS011;16392;52.508;13.468;2023-09-19T13:37:20;602.50;;;542.00;;
8562;SDS011;16392;52.508;13.468;2023-09-19T13:39:47;600.70;;;540.13;;
8562;SDS011;16392;52.508;13.468;2023-09-19T13:42:13;603.40;;;542.97;;
8562;SDS011;16392;52.508;13.468;2023-09-19T13:44:43;591.40;;;531.30;;
8562;SDS011;16392;52.508;13.468;2023-09-19T13:47:09;608.55;;;548.05;;
8562;SDS011;16392;52.508;13.468;2023-09-19T13:49:38;602.88;;;542.10;;
8562;SDS011;16392;52.508;13.468;2023-09-19T13:52:05;579.55;;;519.33;;
8562;SDS011;16392;52.508;13.468;2023-09-19T13:54:32;600.70;;;540.25;;
8562;SDS011;16392;52.508;13.468;2023-09-19T13:57:00;573.78;;;514.20;;
8562;SDS011;16392;52.508;13.468;2023-09-19T13:59:26;589.50;;;529.25;;
8562;SDS011;16392;52.508;13.468;2023-09-19T14:01:55;588.53;;;528.40;;
8562;SDS011;16392;52.508;13.468;2023-09-19T14:04:22;562.75;;;503.08;;
8562;SDS011;16392;52.508;13.468;2023-09-19T14:06:48;583.80;;;523.60;;
8562;SDS011;16392;52.508;13.468;2023-09-19T14:09:15;602.33;;;541.90;;
8562;SDS011;16392;52.508;13.468;2023-09-19T14:11:44;593.63;;;533.28;;
8562;SDS011;16392;52.508;13.468;2023-09-19T14:14:12;552.28;;;493.10;;
8562;SDS011;16392;52.508;13.468;2023-09-19T14:16:39;621.50;;;560.05;;
8562;SDS011;16392;52.508;13.468;2023-09-19T14:19:08;577.33;;;517.50;;
8562;SDS011;16392;52.508;13.468;2023-09-19T14:21:35;609.00;;;548.38;;
8562;SDS011;16392;52.508;13.468;2023-09-19T14:24:04;613.33;;;552.72;;
8562;SDS011;16392;52.508;13.468;2023-09-19T14:26:34;582.22;;;521.83;;